sensor_id;sensor_type;location;lat;lon;timestamp;temperature;humidity
4687;DHT22;2357;47.316;-1.348;2023-06-14T00:00:07;20.70;99.90
4687;DHT22;2357;47.316;-1.348;2023-06-14T00:02:33;20.70;99.90
4687;DHT22;2357;47.316;-1.348;2023-06-14T00:04:58;20.70;99.90
4687;DHT22;2357;47.316;-1.348;2023-06-14T00:07:35;20.60;99.90
4687;DHT22;2357;47.316;-1.348;2023-06-14T00:10:02;20.60;99.90
4687;DHT22;2357;47.316;-1.348;2023-06-14T00:12:28;20.60;99.90
4687;DHT22;2357;47.316;-1.348;2023-06-14T00:14:53;20.60;99.90
4687;DHT22;2357;47.316;-1.348;2023-06-14T00:17:19;20.50;99.90
4687;DHT22;2357;47.316;-1.348;2023-06-14T00:19:44;20.50;99.90
4687;DHT22;2357;47.316;-1.348;2023-06-14T00:22:11;20.40;99.90
4687;DHT22;2357;47.316;-1.348;2023-06-14T00:24:37;20.40;99.90
4687;DHT22;2357;47.316;-1.348;2023-06-14T00:27:03;20.40;99.90
4687;DHT22;2357;47.316;-1.348;2023-06-14T00:29:29;20.40;99.90
4687;DHT22;2357;47.316;-1.348;2023-06-14T00:31:54;20.40;99.90
4687;DHT22;2357;47.316;-1.348;2023-06-14T00:34:20;20.30;99.90
4687;DHT22;2357;47.316;-1.348;2023-06-14T00:36:45;20.30;99.90
4687;DHT22;2357;47.316;-1.348;2023-06-14T00:39:11;20.30;99.90
4687;DHT22;2357;47.316;-1.348;2023-06-14T00:41:37;20.30;99.90
4687;DHT22;2357;47.316;-1.348;2023-06-14T00:44:03;20.20;99.90
4687;DHT22;2357;47.316;-1.348;2023-06-14T00:46:29;20.20;99.90
4687;DHT22;2357;47.316;-1.348;2023-06-14T00:48:56;20.10;99.90
4687;DHT22;2357;47.316;-1.348;2023-06-14T00:51:24;20.10;99.90
4687;DHT22;2357;47.316;-1.348;2023-06-14T00:53:50;20.10;99.90
4687;DHT22;2357;47.316;-1.348;2023-06-14T00:56:16;20.10;99.90
4687;DHT22;2357;47.316;-1.348;2023-06-14T00:58:42;20.00;99.90
4687;DHT22;2357;47.316;-1.348;2023-06-14T01:01:08;20.00;99.90
4687;DHT22;2357;47.316;-1.348;2023-06-14T01:03:34;19.90;99.90
4687;DHT22;2357;47.316;-1.348;2023-06-14T01:06:09;19.90;99.90
4687;DHT22;2357;47.316;-1.348;2023-06-14T01:11:28;19.80;99.90
4687;DHT22;2357;47.316;-1.348;2023-06-14T01:14:00;19.70;99.90
4687;DHT22;2357;47.316;-1.348;2023-06-14T01:16:28;19.70;99.90
4687;DHT22;2357;47.316;-1.348;2023-06-14T01:18:54;19.70;99.90
4687;DHT22;2357;47.316;-1.348;2023-06-14T01:21:24;19.60;99.90
4687;DHT22;2357;47.316;-1.348;2023-06-14T01:23:51;19.60;99.90
4687;DHT22;2357;47.316;-1.348;2023-06-14T01:26:21;19.50;99.90
4687;DHT22;2357;47.316;-1.348;2023-06-14T01:28:48;19.40;99.90
4687;DHT22;2357;47.316;-1.348;2023-06-14T01:31:17;19.40;99.90
4687;DHT22;2357;47.316;-1.348;2023-06-14T01:33:44;19.40;99.90
4687;DHT22;2357;47.316;-1.348;2023-06-14T01:36:10;19.40;99.90
4687;DHT22;2357;47.316;-1.348;2023-06-14T01:38:37;19.40;99.90
4687;DHT22;2357;47.316;-1.348;2023-06-14T01:41:03;19.40;99.90
4687;DHT22;2357;47.316;-1.348;2023-06-14T01:43:30;19.40;99.90
4687;DHT22;2357;47.316;-1.348;2023-06-14T01:45:57;19.40;99.90
4687;DHT22;2357;47.316;-1.348;2023-06-14T01:48:23;19.30;99.90
4687;DHT22;2357;47.316;-1.348;2023-06-14T01:50:49;19.30;99.90
4687;DHT22;2357;47.316;-1.348;2023-06-14T01:53:15;19.20;99.90
4687;DHT22;2357;47.316;-1.348;2023-06-14T01:55:41;19.20;99.90
4687;DHT22;2357;47.316;-1.348;2023-06-14T01:58:09;19.10;99.90
4687;DHT22;2357;47.316;-1.348;2023-06-14T02:00:35;19.10;99.90
4687;DHT22;2357;47.316;-1.348;2023-06-14T02:03:01;19.10;99.90
4687;DHT22;2357;47.316;-1.348;2023-06-14T02:05:27;19.00;99.90
4687;DHT22;2357;47.316;-1.348;2023-06-14T02:07:53;19.10;99.90
4687;DHT22;2357;47.316;-1.348;2023-06-14T02:10:19;19.10;99.90
4687;DHT22;2357;47.316;-1.348;2023-06-14T02:12:45;19.00;99.90
4687;DHT22;2357;47.316;-1.348;2023-06-14T02:15:11;19.00;99.90
4687;DHT22;2357;47.316;-1.348;2023-06-14T02:17:43;19.00;99.90
4687;DHT22;2357;47.316;-1.348;2023-06-14T02:20:09;18.90;99.90
4687;DHT22;2357;47.316;-1.348;2023-06-14T02:22:35;18.90;99.90
4687;DHT22;2357;47.316;-1.348;2023-06-14T02:25:01;18.70;99.90
4687;DHT22;2357;47.316;-1.348;2023-06-14T02:27:26;18.70;99.90
4687;DHT22;2357;47.316;-1.348;2023-06-14T02:29:52;18.70;99.90
4687;DHT22;2357;47.316;-1.348;2023-06-14T02:32:18;18.70;99.90
4687;DHT22;2357;47.316;-1.348;2023-06-14T02:34:43;18.70;99.90
4687;DHT22;2357;47.316;-1.348;2023-06-14T02:37:09;18.70;99.90
4687;DHT22;2357;47.316;-1.348;2023-06-14T02:39:34;18.70;99.90
4687;DHT22;2357;47.316;-1.348;2023-06-14T02:42:00;18.60;99.90
4687;DHT22;2357;47.316;-1.348;2023-06-14T02:44:27;18.60;99.90
4687;DHT22;2357;47.316;-1.348;2023-06-14T02:46:53;18.60;99.90
4687;DHT22;2357;47.316;-1.348;2023-06-14T02:49:21;18.60;99.90
4687;DHT22;2357;47.316;-1.348;2023-06-14T02:51:46;18.60;99.90
4687;DHT22;2357;47.316;-1.348;2023-06-14T02:54:12;18.60;99.90
4687;DHT22;2357;47.316;-1.348;2023-06-14T02:56:39;18.50;99.90
4687;DHT22;2357;47.316;-1.348;2023-06-14T02:59:04;18.50;99.90
4687;DHT22;2357;47.316;-1.348;2023-06-14T03:01:30;18.50;99.90
4687;DHT22;2357;47.316;-1.348;2023-06-14T03:04:02;18.50;99.90
4687;DHT22;2357;47.316;-1.348;2023-06-14T03:06:29;18.40;99.90
4687;DHT22;2357;47.316;-1.348;2023-06-14T03:08:58;18.40;99.90
4687;DHT22;2357;47.316;-1.348;2023-06-14T03:11:25;18.40;99.90
4687;DHT22;2357;47.316;-1.348;2023-06-14T03:13:52;18.30;99.90
4687;DHT22;2357;47.316;-1.348;2023-06-14T03:16:18;18.30;99.90
4687;DHT22;2357;47.316;-1.348;2023-06-14T03:18:52;18.20;99.90
4687;DHT22;2357;47.316;-1.348;2023-06-14T03:21:21;18.30;99.90
4687;DHT22;2357;47.316;-1.348;2023-06-14T03:23:47;18.30;99.90
4687;DHT22;2357;47.316;-1.348;2023-06-14T03:26:13;18.20;99.90
4687;DHT22;2357;47.316;-1.348;2023-06-14T03:28:47;18.20;99.90
4687;DHT22;2357;47.316;-1.348;2023-06-14T03:31:13;18.20;99.90
4687;DHT22;2357;47.316;-1.348;2023-06-14T03:33:39;18.10;99.90
4687;DHT22;2357;47.316;-1.348;2023-06-14T03:36:05;18.10;99.90
4687;DHT22;2357;47.316;-1.348;2023-06-14T03:38:32;18.10;99.90
4687;DHT22;2357;47.316;-1.348;2023-06-14T03:40:58;18.00;99.90
4687;DHT22;2357;47.316;-1.348;2023-06-14T03:43:23;18.00;99.90
4687;DHT22;2357;47.316;-1.348;2023-06-14T03:45:49;18.00;99.90
4687;DHT22;2357;47.316;-1.348;2023-06-14T03:48:15;18.00;99.90
4687;DHT22;2357;47.316;-1.348;2023-06-14T03:50:40;17.90;99.90
4687;DHT22;2357;47.316;-1.348;2023-06-14T03:53:08;17.90;99.90
4687;DHT22;2357;47.316;-1.348;2023-06-14T03:55:34;17.90;99.90
4687;DHT22;2357;47.316;-1.348;2023-06-14T03:58:00;17.90;99.90
4687;DHT22;2357;47.316;-1.348;2023-06-14T04:00:26;17.90;99.90
4687;DHT22;2357;47.316;-1.348;2023-06-14T04:02:52;17.90;99.90
4687;DHT22;2357;47.316;-1.348;2023-06-14T04:05:18;17.80;99.90
4687;DHT22;2357;47.316;-1.348;2023-06-14T04:07:45;17.80;99.90
4687;DHT22;2357;47.316;-1.348;2023-06-14T04:10:14;17.80;99.90
4687;DHT22;2357;47.316;-1.348;2023-06-14T04:12:40;17.80;99.90
4687;DHT22;2357;47.316;-1.348;2023-06-14T04:15:07;17.80;99.90
4687;DHT22;2357;47.316;-1.348;2023-06-14T04:17:33;17.80;99.90
4687;DHT22;2357;47.316;-1.348;2023-06-14T04:19:59;17.80;99.90
4687;DHT22;2357;47.316;-1.348;2023-06-14T04:22:26;17.80;99.90
4687;DHT22;2357;47.316;-1.348;2023-06-14T04:24:54;17.80;99.90
4687;DHT22;2357;47.316;-1.348;2023-06-14T04:27:22;17.80;99.90
4687;DHT22;2357;47.316;-1.348;2023-06-14T04:29:54;17.80;99.90
4687;DHT22;2357;47.316;-1.348;2023-06-14T04:32:26;17.80;99.90
4687;DHT22;2357;47.316;-1.348;2023-06-14T04:34:55;17.80;99.90
4687;DHT22;2357;47.316;-1.348;2023-06-14T04:37:21;17.70;99.90
4687;DHT22;2357;47.316;-1.348;2023-06-14T04:39:50;17.70;99.90
4687;DHT22;2357;47.316;-1.348;2023-06-14T04:42:17;17.70;99.90
4687;DHT22;2357;47.316;-1.348;2023-06-14T04:44:46;17.70;99.90
4687;DHT22;2357;47.316;-1.348;2023-06-14T04:47:13;17.70;99.90
4687;DHT22;2357;47.316;-1.348;2023-06-14T04:49:39;17.70;99.90
4687;DHT22;2357;47.316;-1.348;2023-06-14T04:52:06;17.80;99.90
4687;DHT22;2357;47.316;-1.348;2023-06-14T04:54:33;17.80;99.90
4687;DHT22;2357;47.316;-1.348;2023-06-14T04:56:59;17.80;99.90
4687;DHT22;2357;47.316;-1.348;2023-06-14T04:59:25;17.90;99.90
4687;DHT22;2357;47.316;-1.348;2023-06-14T05:01:51;17.90;99.90
4687;DHT22;2357;47.316;-1.348;2023-06-14T05:04:19;17.90;99.90
4687;DHT22;2357;47.316;-1.348;2023-06-14T05:06:45;17.90;99.90
4687;DHT22;2357;47.316;-1.348;2023-06-14T05:09:14;17.90;99.90
4687;DHT22;2357;47.316;-1.348;2023-06-14T05:11:40;18.00;99.90
4687;DHT22;2357;47.316;-1.348;2023-06-14T05:14:07;18.00;99.90
4687;DHT22;2357;47.316;-1.348;2023-06-14T05:16:33;17.80;99.90
4687;DHT22;2357;47.316;-1.348;2023-06-14T05:18:59;18.00;99.90
4687;DHT22;2357;47.316;-1.348;2023-06-14T05:21:25;18.00;99.90
4687;DHT22;2357;47.316;-1.348;2023-06-14T05:23:50;18.10;99.90
4687;DHT22;2357;47.316;-1.348;2023-06-14T05:26:16;18.10;99.90
4687;DHT22;2357;47.316;-1.348;2023-06-14T05:28:42;18.20;99.90
4687;DHT22;2357;47.316;-1.348;2023-06-14T05:31:08;18.20;99.90
4687;DHT22;2357;47.316;-1.348;2023-06-14T05:33:33;18.30;99.90
4687;DHT22;2357;47.316;-1.348;2023-06-14T05:35:59;18.30;99.90
4687;DHT22;2357;47.316;-1.348;2023-06-14T05:38:25;18.30;99.90
4687;DHT22;2357;47.316;-1.348;2023-06-14T05:40:51;18.40;99.90
4687;DHT22;2357;47.316;-1.348;2023-06-14T05:43:16;18.40;99.90
4687;DHT22;2357;47.316;-1.348;2023-06-14T05:45:42;18.40;99.90
4687;DHT22;2357;47.316;-1.348;2023-06-14T05:48:07;18.40;99.90
4687;DHT22;2357;47.316;-1.348;2023-06-14T05:50:33;18.50;99.90
4687;DHT22;2357;47.316;-1.348;2023-06-14T05:52:59;18.50;99.90
4687;DHT22;2357;47.316;-1.348;2023-06-14T05:55:25;18.50;99.90
4687;DHT22;2357;47.316;-1.348;2023-06-14T05:57:50;18.50;99.90
4687;DHT22;2357;47.316;-1.348;2023-06-14T06:00:17;18.60;99.90
4687;DHT22;2357;47.316;-1.348;2023-06-14T06:02:45;18.60;99.90
4687;DHT22;2357;47.316;-1.348;2023-06-14T06:05:11;18.60;99.90
4687;DHT22;2357;47.316;-1.348;2023-06-14T06:07:38;18.60;99.90
4687;DHT22;2357;47.316;-1.348;2023-06-14T06:10:05;18.60;99.90
4687;DHT22;2357;47.316;-1.348;2023-06-14T06:12:31;18.60;99.90
4687;DHT22;2357;47.316;-1.348;2023-06-14T06:14:58;18.60;99.90
4687;DHT22;2357;47.316;-1.348;2023-06-14T06:17:25;18.70;99.90
4687;DHT22;2357;47.316;-1.348;2023-06-14T06:19:51;18.70;99.90
4687;DHT22;2357;47.316;-1.348;2023-06-14T06:22:16;18.80;99.90
4687;DHT22;2357;47.316;-1.348;2023-06-14T06:24:42;18.80;99.90
4687;DHT22;2357;47.316;-1.348;2023-06-14T06:27:08;18.80;99.90
4687;DHT22;2357;47.316;-1.348;2023-06-14T06:29:34;18.80;99.90
4687;DHT22;2357;47.316;-1.348;2023-06-14T06:32:00;18.90;99.90
4687;DHT22;2357;47.316;-1.348;2023-06-14T06:34:26;18.90;99.90
4687;DHT22;2357;47.316;-1.348;2023-06-14T06:36:52;18.90;99.90
4687;DHT22;2357;47.316;-1.348;2023-06-14T06:39:18;19.00;99.90
4687;DHT22;2357;47.316;-1.348;2023-06-14T06:41:43;19.00;99.90
4687;DHT22;2357;47.316;-1.348;2023-06-14T06:44:09;19.10;99.90
4687;DHT22;2357;47.316;-1.348;2023-06-14T06:46:38;19.10;99.90
4687;DHT22;2357;47.316;-1.348;2023-06-14T06:49:06;19.10;99.90
4687;DHT22;2357;47.316;-1.348;2023-06-14T06:51:32;19.10;99.90
4687;DHT22;2357;47.316;-1.348;2023-06-14T06:53:58;19.20;99.90
4687;DHT22;2357;47.316;-1.348;2023-06-14T06:56:24;19.10;99.90
4687;DHT22;2357;47.316;-1.348;2023-06-14T06:58:52;19.20;99.90
4687;DHT22;2357;47.316;-1.348;2023-06-14T07:01:18;19.30;99.90
4687;DHT22;2357;47.316;-1.348;2023-06-14T07:03:45;19.30;99.90
4687;DHT22;2357;47.316;-1.348;2023-06-14T07:06:11;19.30;99.90
4687;DHT22;2357;47.316;-1.348;2023-06-14T07:08:37;19.40;99.90
4687;DHT22;2357;47.316;-1.348;2023-06-14T07:11:04;19.50;99.90
4687;DHT22;2357;47.316;-1.348;2023-06-14T07:13:30;19.40;99.90
4687;DHT22;2357;47.316;-1.348;2023-06-14T07:15:58;19.50;99.90
4687;DHT22;2357;47.316;-1.348;2023-06-14T07:18:24;19.60;99.90
4687;DHT22;2357;47.316;-1.348;2023-06-14T07:20:50;19.60;99.90
4687;DHT22;2357;47.316;-1.348;2023-06-14T07:23:15;19.70;99.90
4687;DHT22;2357;47.316;-1.348;2023-06-14T07:25:41;19.70;99.90
4687;DHT22;2357;47.316;-1.348;2023-06-14T07:28:07;19.70;99.90
4687;DHT22;2357;47.316;-1.348;2023-06-14T07:30:32;19.70;99.90
4687;DHT22;2357;47.316;-1.348;2023-06-14T07:32:58;19.80;99.90
4687;DHT22;2357;47.316;-1.348;2023-06-14T07:35:24;19.90;99.90
4687;DHT22;2357;47.316;-1.348;2023-06-14T07:37:49;20.00;99.90
4687;DHT22;2357;47.316;-1.348;2023-06-14T07:40:15;20.00;99.90
4687;DHT22;2357;47.316;-1.348;2023-06-14T07:42:41;20.00;99.90
4687;DHT22;2357;47.316;-1.348;2023-06-14T07:45:07;20.10;99.90
4687;DHT22;2357;47.316;-1.348;2023-06-14T07:47:33;20.20;99.90
4687;DHT22;2357;47.316;-1.348;2023-06-14T07:49:59;20.30;99.90
4687;DHT22;2357;47.316;-1.348;2023-06-14T07:52:24;20.40;99.90
4687;DHT22;2357;47.316;-1.348;2023-06-14T07:54:50;20.40;99.90
4687;DHT22;2357;47.316;-1.348;2023-06-14T07:57:16;20.50;99.90
4687;DHT22;2357;47.316;-1.348;2023-06-14T07:59:42;20.60;99.90
4687;DHT22;2357;47.316;-1.348;2023-06-14T08:02:07;20.70;99.90
4687;DHT22;2357;47.316;-1.348;2023-06-14T08:04:33;20.80;99.90
4687;DHT22;2357;47.316;-1.348;2023-06-14T08:06:59;20.90;99.90
4687;DHT22;2357;47.316;-1.348;2023-06-14T08:09:26;21.00;99.90
4687;DHT22;2357;47.316;-1.348;2023-06-14T08:11:54;21.10;99.90
4687;DHT22;2357;47.316;-1.348;2023-06-14T08:14:19;21.10;99.90
4687;DHT22;2357;47.316;-1.348;2023-06-14T08:16:45;21.20;99.90
4687;DHT22;2357;47.316;-1.348;2023-06-14T08:19:11;21.30;99.90
4687;DHT22;2357;47.316;-1.348;2023-06-14T08:21:37;21.40;99.90
4687;DHT22;2357;47.316;-1.348;2023-06-14T08:24:03;21.50;99.90
4687;DHT22;2357;47.316;-1.348;2023-06-14T08:26:29;21.70;99.90
4687;DHT22;2357;47.316;-1.348;2023-06-14T08:28:55;21.80;99.90
4687;DHT22;2357;47.316;-1.348;2023-06-14T08:31:21;21.80;99.90
4687;DHT22;2357;47.316;-1.348;2023-06-14T08:33:47;21.80;99.90
4687;DHT22;2357;47.316;-1.348;2023-06-14T08:36:13;21.90;99.90
4687;DHT22;2357;47.316;-1.348;2023-06-14T08:38:39;22.10;99.90
4687;DHT22;2357;47.316;-1.348;2023-06-14T08:41:05;22.20;99.90
4687;DHT22;2357;47.316;-1.348;2023-06-14T08:43:32;22.30;99.90
4687;DHT22;2357;47.316;-1.348;2023-06-14T08:46:00;22.30;99.90
4687;DHT22;2357;47.316;-1.348;2023-06-14T08:48:26;22.40;99.90
4687;DHT22;2357;47.316;-1.348;2023-06-14T08:50:55;22.50;99.90
4687;DHT22;2357;47.316;-1.348;2023-06-14T08:53:28;22.60;99.90
4687;DHT22;2357;47.316;-1.348;2023-06-14T08:56:02;22.80;99.90
4687;DHT22;2357;47.316;-1.348;2023-06-14T08:58:30;22.90;99.90
4687;DHT22;2357;47.316;-1.348;2023-06-14T09:01:03;23.00;99.90
4687;DHT22;2357;47.316;-1.348;2023-06-14T09:03:30;23.00;99.90
4687;DHT22;2357;47.316;-1.348;2023-06-14T09:05:59;23.10;99.90
4687;DHT22;2357;47.316;-1.348;2023-06-14T09:08:27;23.20;99.90
4687;DHT22;2357;47.316;-1.348;2023-06-14T09:10:56;23.20;99.90
4687;DHT22;2357;47.316;-1.348;2023-06-14T09:13:22;23.30;99.90
4687;DHT22;2357;47.316;-1.348;2023-06-14T09:15:47;23.50;99.90
4687;DHT22;2357;47.316;-1.348;2023-06-14T09:18:13;23.60;99.90
4687;DHT22;2357;47.316;-1.348;2023-06-14T09:20:40;23.60;99.90
4687;DHT22;2357;47.316;-1.348;2023-06-14T09:23:06;23.70;99.90
4687;DHT22;2357;47.316;-1.348;2023-06-14T09:25:41;23.70;99.90
4687;DHT22;2357;47.316;-1.348;2023-06-14T09:28:07;23.90;99.90
4687;DHT22;2357;47.316;-1.348;2023-06-14T09:30:39;24.00;99.90
4687;DHT22;2357;47.316;-1.348;2023-06-14T09:33:05;24.10;99.90
4687;DHT22;2357;47.316;-1.348;2023-06-14T09:35:32;24.10;99.90
4687;DHT22;2357;47.316;-1.348;2023-06-14T09:37:58;24.10;99.90
4687;DHT22;2357;47.316;-1.348;2023-06-14T09:40:24;24.10;99.90
4687;DHT22;2357;47.316;-1.348;2023-06-14T09:42:50;24.30;99.90
4687;DHT22;2357;47.316;-1.348;2023-06-14T09:45:16;24.40;99.90
4687;DHT22;2357;47.316;-1.348;2023-06-14T09:47:48;24.50;99.90
4687;DHT22;2357;47.316;-1.348;2023-06-14T09:50:14;24.60;99.90
4687;DHT22;2357;47.316;-1.348;2023-06-14T09:52:42;24.80;99.90
4687;DHT22;2357;47.316;-1.348;2023-06-14T09:55:12;24.70;99.90
4687;DHT22;2357;47.316;-1.348;2023-06-14T09:57:41;24.80;99.90
4687;DHT22;2357;47.316;-1.348;2023-06-14T10:00:09;24.90;99.90
4687;DHT22;2357;47.316;-1.348;2023-06-14T10:02:38;24.90;99.90
4687;DHT22;2357;47.316;-1.348;2023-06-14T10:05:05;24.90;99.90
4687;DHT22;2357;47.316;-1.348;2023-06-14T10:07:47;25.00;99.90
4687;DHT22;2357;47.316;-1.348;2023-06-14T10:10:14;25.20;99.90
4687;DHT22;2357;47.316;-1.348;2023-06-14T10:12:40;25.20;99.90
4687;DHT22;2357;47.316;-1.348;2023-06-14T10:15:09;25.20;99.90
4687;DHT22;2357;47.316;-1.348;2023-06-14T10:17:39;25.40;99.90
4687;DHT22;2357;47.316;-1.348;2023-06-14T10:23:13;25.60;99.90
4687;DHT22;2357;47.316;-1.348;2023-06-14T10:25:39;25.70;99.90
4687;DHT22;2357;47.316;-1.348;2023-06-14T10:28:17;25.80;99.90
4687;DHT22;2357;47.316;-1.348;2023-06-14T10:31:06;25.90;99.90
4687;DHT22;2357;47.316;-1.348;2023-06-14T10:33:55;26.00;99.90
4687;DHT22;2357;47.316;-1.348;2023-06-14T10:36:28;26.10;99.90
4687;DHT22;2357;47.316;-1.348;2023-06-14T10:41:28;26.30;99.90
4687;DHT22;2357;47.316;-1.348;2023-06-14T10:46:41;26.50;99.90
4687;DHT22;2357;47.316;-1.348;2023-06-14T10:49:11;26.40;99.90
4687;DHT22;2357;47.316;-1.348;2023-06-14T10:51:42;26.40;99.90
4687;DHT22;2357;47.316;-1.348;2023-06-14T10:54:17;26.60;99.90
4687;DHT22;2357;47.316;-1.348;2023-06-14T10:56:51;26.60;99.90
4687;DHT22;2357;47.316;-1.348;2023-06-14T10:59:18;26.70;99.90
4687;DHT22;2357;47.316;-1.348;2023-06-14T11:02:06;26.80;99.90
4687;DHT22;2357;47.316;-1.348;2023-06-14T11:04:50;27.00;99.90
4687;DHT22;2357;47.316;-1.348;2023-06-14T11:10:26;27.10;99.90
4687;DHT22;2357;47.316;-1.348;2023-06-14T11:12:56;27.20;99.90
4687;DHT22;2357;47.316;-1.348;2023-06-14T11:15:31;27.30;99.90
4687;DHT22;2357;47.316;-1.348;2023-06-14T11:17:57;27.40;99.90
4687;DHT22;2357;47.316;-1.348;2023-06-14T11:20:26;27.60;99.90
4687;DHT22;2357;47.316;-1.348;2023-06-14T11:22:53;27.70;99.90
4687;DHT22;2357;47.316;-1.348;2023-06-14T11:25:20;27.60;99.90
4687;DHT22;2357;47.316;-1.348;2023-06-14T11:27:46;27.70;99.90
4687;DHT22;2357;47.316;-1.348;2023-06-14T11:30:12;27.70;99.90
4687;DHT22;2357;47.316;-1.348;2023-06-14T11:32:38;27.70;99.90
4687;DHT22;2357;47.316;-1.348;2023-06-14T11:35:05;27.70;99.90
4687;DHT22;2357;47.316;-1.348;2023-06-14T11:37:31;27.90;99.90
4687;DHT22;2357;47.316;-1.348;2023-06-14T11:40:00;28.10;99.90
4687;DHT22;2357;47.316;-1.348;2023-06-14T11:42:29;28.20;99.90
4687;DHT22;2357;47.316;-1.348;2023-06-14T11:44:55;28.20;99.90
4687;DHT22;2357;47.316;-1.348;2023-06-14T11:47:22;28.10;99.90
4687;DHT22;2357;47.316;-1.348;2023-06-14T11:49:47;28.30;99.90
4687;DHT22;2357;47.316;-1.348;2023-06-14T11:52:14;28.40;99.90
4687;DHT22;2357;47.316;-1.348;2023-06-14T11:54:40;28.50;99.90
4687;DHT22;2357;47.316;-1.348;2023-06-14T11:57:07;28.60;99.90
4687;DHT22;2357;47.316;-1.348;2023-06-14T11:59:41;28.60;99.90
4687;DHT22;2357;47.316;-1.348;2023-06-14T12:02:07;28.60;99.90
4687;DHT22;2357;47.316;-1.348;2023-06-14T12:04:33;28.70;99.90
4687;DHT22;2357;47.316;-1.348;2023-06-14T12:07:12;28.70;99.90
4687;DHT22;2357;47.316;-1.348;2023-06-14T12:09:40;29.00;99.90
4687;DHT22;2357;47.316;-1.348;2023-06-14T12:12:06;29.10;99.90
4687;DHT22;2357;47.316;-1.348;2023-06-14T12:14:32;29.30;99.90
4687;DHT22;2357;47.316;-1.348;2023-06-14T12:17:05;29.50;99.90
4687;DHT22;2357;47.316;-1.348;2023-06-14T12:19:42;29.40;99.90
4687;DHT22;2357;47.316;-1.348;2023-06-14T12:22:10;29.10;99.90
4687;DHT22;2357;47.316;-1.348;2023-06-14T12:24:36;29.10;99.90
4687;DHT22;2357;47.316;-1.348;2023-06-14T12:27:02;29.30;99.90
4687;DHT22;2357;47.316;-1.348;2023-06-14T12:29:29;29.30;99.90
4687;DHT22;2357;47.316;-1.348;2023-06-14T12:31:55;29.70;99.90
4687;DHT22;2357;47.316;-1.348;2023-06-14T12:34:23;29.90;99.90
4687;DHT22;2357;47.316;-1.348;2023-06-14T12:36:50;29.90;99.90
4687;DHT22;2357;47.316;-1.348;2023-06-14T12:39:16;29.60;99.90
4687;DHT22;2357;47.316;-1.348;2023-06-14T12:41:41;29.50;99.90
4687;DHT22;2357;47.316;-1.348;2023-06-14T12:44:07;29.70;99.90
4687;DHT22;2357;47.316;-1.348;2023-06-14T12:46:33;29.80;99.90
4687;DHT22;2357;47.316;-1.348;2023-06-14T12:49:00;30.10;99.90
4687;DHT22;2357;47.316;-1.348;2023-06-14T12:51:26;30.20;99.90
4687;DHT22;2357;47.316;-1.348;2023-06-14T12:53:52;30.00;99.90
4687;DHT22;2357;47.316;-1.348;2023-06-14T12:56:17;30.40;99.90
4687;DHT22;2357;47.316;-1.348;2023-06-14T12:58:43;30.80;99.90
4687;DHT22;2357;47.316;-1.348;2023-06-14T13:01:09;31.00;99.90
4687;DHT22;2357;47.316;-1.348;2023-06-14T13:03:35;31.20;99.90
4687;DHT22;2357;47.316;-1.348;2023-06-14T13:06:01;31.20;99.90
4687;DHT22;2357;47.316;-1.348;2023-06-14T13:08:27;30.70;99.90
4687;DHT22;2357;47.316;-1.348;2023-06-14T13:10:53;30.90;99.90
4687;DHT22;2357;47.316;-1.348;2023-06-14T13:13:19;30.80;99.90
4687;DHT22;2357;47.316;-1.348;2023-06-14T13:15:45;30.90;99.90
4687;DHT22;2357;47.316;-1.348;2023-06-14T13:18:12;30.80;99.90
4687;DHT22;2357;47.316;-1.348;2023-06-14T13:20:39;31.20;99.90
4687;DHT22;2357;47.316;-1.348;2023-06-14T13:23:05;31.40;99.90
4687;DHT22;2357;47.316;-1.348;2023-06-14T13:25:37;31.30;99.90
4687;DHT22;2357;47.316;-1.348;2023-06-14T13:28:04;31.90;99.90
4687;DHT22;2357;47.316;-1.348;2023-06-14T13:30:30;31.90;99.90
4687;DHT22;2357;47.316;-1.348;2023-06-14T13:32:56;32.30;99.90
4687;DHT22;2357;47.316;-1.348;2023-06-14T13:35:22;31.80;99.90
4687;DHT22;2357;47.316;-1.348;2023-06-14T13:37:48;31.70;99.90
4687;DHT22;2357;47.316;-1.348;2023-06-14T13:40:13;31.40;99.90
4687;DHT22;2357;47.316;-1.348;2023-06-14T13:42:39;30.90;99.90
4687;DHT22;2357;47.316;-1.348;2023-06-14T13:45:06;30.90;99.90
4687;DHT22;2357;47.316;-1.348;2023-06-14T13:47:32;30.70;99.90
4687;DHT22;2357;47.316;-1.348;2023-06-14T13:49:58;31.00;99.90
4687;DHT22;2357;47.316;-1.348;2023-06-14T13:52:24;30.80;99.90
4687;DHT22;2357;47.316;-1.348;2023-06-14T13:54:50;31.00;99.90
4687;DHT22;2357;47.316;-1.348;2023-06-14T13:57:17;31.30;99.90
4687;DHT22;2357;47.316;-1.348;2023-06-14T13:59:43;31.50;99.90
4687;DHT22;2357;47.316;-1.348;2023-06-14T14:02:12;31.60;99.90
4687;DHT22;2357;47.316;-1.348;2023-06-14T14:04:38;31.90;99.90
4687;DHT22;2357;47.316;-1.348;2023-06-14T14:07:05;32.00;99.90
4687;DHT22;2357;47.316;-1.348;2023-06-14T14:09:31;32.30;99.90
4687;DHT22;2357;47.316;-1.348;2023-06-14T14:11:58;32.50;99.90
4687;DHT22;2357;47.316;-1.348;2023-06-14T14:14:24;32.40;99.90
4687;DHT22;2357;47.316;-1.348;2023-06-14T14:16:50;32.70;99.90
4687;DHT22;2357;47.316;-1.348;2023-06-14T14:19:20;32.70;99.90
4687;DHT22;2357;47.316;-1.348;2023-06-14T14:21:46;32.30;99.90
4687;DHT22;2357;47.316;-1.348;2023-06-14T14:24:12;32.40;99.90
4687;DHT22;2357;47.316;-1.348;2023-06-14T14:26:38;32.20;99.90
4687;DHT22;2357;47.316;-1.348;2023-06-14T14:29:04;32.20;99.90
4687;DHT22;2357;47.316;-1.348;2023-06-14T14:31:30;32.30;99.90
4687;DHT22;2357;47.316;-1.348;2023-06-14T14:33:56;32.10;99.90
4687;DHT22;2357;47.316;-1.348;2023-06-14T14:36:22;32.10;99.90
4687;DHT22;2357;47.316;-1.348;2023-06-14T14:38:47;32.30;99.90
4687;DHT22;2357;47.316;-1.348;2023-06-14T14:41:13;32.10;99.90
4687;DHT22;2357;47.316;-1.348;2023-06-14T14:43:39;32.20;99.90
4687;DHT22;2357;47.316;-1.348;2023-06-14T14:46:04;32.40;99.90
4687;DHT22;2357;47.316;-1.348;2023-06-14T14:48:30;31.70;99.90
4687;DHT22;2357;47.316;-1.348;2023-06-14T14:50:56;32.00;99.90
4687;DHT22;2357;47.316;-1.348;2023-06-14T14:53:22;32.00;99.90
4687;DHT22;2357;47.316;-1.348;2023-06-14T14:55:47;31.90;99.90
4687;DHT22;2357;47.316;-1.348;2023-06-14T14:58:13;32.30;99.90
4687;DHT22;2357;47.316;-1.348;2023-06-14T15:00:42;32.00;99.90
4687;DHT22;2357;47.316;-1.348;2023-06-14T15:03:08;32.50;99.90
4687;DHT22;2357;47.316;-1.348;2023-06-14T15:05:33;32.70;99.90
4687;DHT22;2357;47.316;-1.348;2023-06-14T15:07:59;32.00;99.90
4687;DHT22;2357;47.316;-1.348;2023-06-14T15:10:24;31.60;99.90
4687;DHT22;2357;47.316;-1.348;2023-06-14T15:12:50;31.40;99.90
4687;DHT22;2357;47.316;-1.348;2023-06-14T15:15:16;31.50;99.90
4687;DHT22;2357;47.316;-1.348;2023-06-14T15:17:41;32.00;99.90
4687;DHT22;2357;47.316;-1.348;2023-06-14T15:20:07;32.30;99.90
4687;DHT22;2357;47.316;-1.348;2023-06-14T15:22:33;32.50;99.90
4687;DHT22;2357;47.316;-1.348;2023-06-14T15:24:59;32.80;99.90
4687;DHT22;2357;47.316;-1.348;2023-06-14T15:27:25;32.90;99.90
4687;DHT22;2357;47.316;-1.348;2023-06-14T15:29:51;33.10;99.90
4687;DHT22;2357;47.316;-1.348;2023-06-14T15:32:16;33.10;99.90
4687;DHT22;2357;47.316;-1.348;2023-06-14T15:34:42;33.10;99.90
4687;DHT22;2357;47.316;-1.348;2023-06-14T15:37:08;33.10;99.90
4687;DHT22;2357;47.316;-1.348;2023-06-14T15:39:34;33.10;99.90
4687;DHT22;2357;47.316;-1.348;2023-06-14T15:41:59;33.10;99.90
4687;DHT22;2357;47.316;-1.348;2023-06-14T15:44:26;33.00;99.90
4687;DHT22;2357;47.316;-1.348;2023-06-14T15:46:52;32.50;99.90
4687;DHT22;2357;47.316;-1.348;2023-06-14T15:49:17;32.30;99.90
4687;DHT22;2357;47.316;-1.348;2023-06-14T15:51:44;32.50;99.90
4687;DHT22;2357;47.316;-1.348;2023-06-14T15:54:10;31.90;99.90
4687;DHT22;2357;47.316;-1.348;2023-06-14T15:56:36;31.30;99.90